sensor_id;sensor_type;location;lat;lon;timestamp;P1;durP1;ratioP1;P2;durP2;ratioP2
32214;SDS011;18708;53.124;23.190;2023-12-20T00:01:34;25.42;;;16.63;;
32214;SDS011;18708;53.124;23.190;2023-12-20T00:04:01;22.27;;;15.98;;
32214;SDS011;18708;53.124;23.190;2023-12-20T00:06:27;21.60;;;15.57;;
32214;SDS011;18708;53.124;23.190;2023-12-20T00:08:53;24.25;;;16.52;;
32214;SDS011;18708;53.124;23.190;2023-12-20T00:11:18;21.23;;;15.38;;
32214;SDS011;18708;53.124;23.190;2023-12-20T00:13:46;22.75;;;16.83;;
32214;SDS011;18708;53.124;23.190;2023-12-20T00:16:12;23.88;;;17.17;;
32214;SDS011;18708;53.124;23.190;2023-12-20T00:18:37;24.90;;;17.55;;
32214;SDS011;18708;53.124;23.190;2023-12-20T00:21:03;25.80;;;17.88;;
32214;SDS011;18708;53.124;23.190;2023-12-20T00:23:29;24.10;;;16.40;;
32214;SDS011;18708;53.124;23.190;2023-12-20T00:25:55;26.65;;;17.60;;
32214;SDS011;18708;53.124;23.190;2023-12-20T00:28:21;22.13;;;16.63;;
32214;SDS011;18708;53.124;23.190;2023-12-20T00:30:47;22.38;;;16.27;;
32214;SDS011;18708;53.124;23.190;2023-12-20T00:33:15;24.83;;;17.23;;
32214;SDS011;18708;53.124;23.190;2023-12-20T00:35:40;25.30;;;17.25;;
32214;SDS011;18708;53.124;23.190;2023-12-20T00:38:06;23.33;;;16.83;;
32214;SDS011;18708;53.124;23.190;2023-12-20T00:40:33;25.05;;;16.50;;
32214;SDS011;18708;53.124;23.190;2023-12-20T00:42:59;23.88;;;16.83;;
32214;SDS011;18708;53.124;23.190;2023-12-20T00:45:25;24.30;;;16.98;;
32214;SDS011;18708;53.124;23.190;2023-12-20T00:47:52;22.60;;;15.40;;
32214;SDS011;18708;53.124;23.190;2023-12-20T00:50:17;24.80;;;17.73;;
32214;SDS011;18708;53.124;23.190;2023-12-20T00:52:43;20.73;;;14.48;;
32214;SDS011;18708;53.124;23.190;2023-12-20T00:55:09;23.73;;;17.35;;
32214;SDS011;18708;53.124;23.190;2023-12-20T00:57:34;21.67;;;15.90;;
32214;SDS011;18708;53.124;23.190;2023-12-20T01:00:00;22.67;;;17.08;;
32214;SDS011;18708;53.124;23.190;2023-12-20T01:02:26;23.35;;;17.35;;
32214;SDS011;18708;53.124;23.190;2023-12-20T01:04:54;21.92;;;16.88;;
32214;SDS011;18708;53.124;23.190;2023-12-20T01:07:22;24.02;;;16.23;;
32214;SDS011;18708;53.124;23.190;2023-12-20T01:09:47;21.63;;;16.95;;
32214;SDS011;18708;53.124;23.190;2023-12-20T01:12:13;21.95;;;15.00;;
32214;SDS011;18708;53.124;23.190;2023-12-20T01:14:39;25.50;;;16.98;;
32214;SDS011;18708;53.124;23.190;2023-12-20T01:17:04;21.52;;;15.88;;
32214;SDS011;18708;53.124;23.190;2023-12-20T01:19:30;22.02;;;16.25;;
32214;SDS011;18708;53.124;23.190;2023-12-20T01:21:56;24.88;;;17.85;;
32214;SDS011;18708;53.124;23.190;2023-12-20T01:24:21;20.48;;;15.68;;
32214;SDS011;18708;53.124;23.190;2023-12-20T01:26:47;19.00;;;14.70;;
32214;SDS011;18708;53.124;23.190;2023-12-20T01:29:13;20.35;;;15.52;;
32214;SDS011;18708;53.124;23.190;2023-12-20T01:31:39;18.95;;;14.18;;
32214;SDS011;18708;53.124;23.190;2023-12-20T01:34:08;20.25;;;14.80;;
32214;SDS011;18708;53.124;23.190;2023-12-20T01:36:34;20.30;;;15.13;;
32214;SDS011;18708;53.124;23.190;2023-12-20T01:38:59;18.33;;;14.23;;
32214;SDS011;18708;53.124;23.190;2023-12-20T01:41:25;19.40;;;15.52;;
32214;SDS011;18708;53.124;23.190;2023-12-20T01:43:51;16.23;;;13.07;;
32214;SDS011;18708;53.124;23.190;2023-12-20T01:46:18;17.70;;;13.52;;
32214;SDS011;18708;53.124;23.190;2023-12-20T01:48:45;17.13;;;13.50;;
32214;SDS011;18708;53.124;23.190;2023-12-20T01:51:11;15.93;;;12.90;;
32214;SDS011;18708;53.124;23.190;2023-12-20T01:53:36;16.10;;;12.52;;
32214;SDS011;18708;53.124;23.190;2023-12-20T01:56:03;17.05;;;12.38;;
32214;SDS011;18708;53.124;23.190;2023-12-20T01:58:30;15.77;;;12.43;;
32214;SDS011;18708;53.124;23.190;2023-12-20T02:00:56;15.55;;;12.80;;
32214;SDS011;18708;53.124;23.190;2023-12-20T02:03:23;15.82;;;12.15;;
32214;SDS011;18708;53.124;23.190;2023-12-20T02:05:49;15.45;;;11.75;;
32214;SDS011;18708;53.124;23.190;2023-12-20T02:08:15;19.55;;;13.80;;
32214;SDS011;18708;53.124;23.190;2023-12-20T02:10:41;14.88;;;12.18;;
32214;SDS011;18708;53.124;23.190;2023-12-20T02:13:07;16.33;;;12.35;;
32214;SDS011;18708;53.124;23.190;2023-12-20T02:15:32;16.00;;;12.20;;
32214;SDS011;18708;53.124;23.190;2023-12-20T02:17:58;14.52;;;11.73;;
32214;SDS011;18708;53.124;23.190;2023-12-20T02:20:24;15.20;;;11.90;;
32214;SDS011;18708;53.124;23.190;2023-12-20T02:22:50;15.85;;;11.50;;
32214;SDS011;18708;53.124;23.190;2023-12-20T02:25:15;16.50;;;12.07;;
32214;SDS011;18708;53.124;23.190;2023-12-20T02:27:41;15.30;;;11.25;;
32214;SDS011;18708;53.124;23.190;2023-12-20T02:30:07;13.00;;;10.93;;
32214;SDS011;18708;53.124;23.190;2023-12-20T02:32:33;16.10;;;12.32;;
32214;SDS011;18708;53.124;23.190;2023-12-20T02:34:59;14.52;;;11.20;;
32214;SDS011;18708;53.124;23.190;2023-12-20T02:37:24;16.00;;;11.85;;
32214;SDS011;18708;53.124;23.190;2023-12-20T02:39:50;13.88;;;11.05;;
32214;SDS011;18708;53.124;23.190;2023-12-20T02:42:16;14.70;;;10.35;;
32214;SDS011;18708;53.124;23.190;2023-12-20T02:44:42;14.48;;;10.70;;
32214;SDS011;18708;53.124;23.190;2023-12-20T02:47:08;13.07;;;10.20;;
32214;SDS011;18708;53.124;23.190;2023-12-20T02:49:33;12.85;;;10.43;;
32214;SDS011;18708;53.124;23.190;2023-12-20T02:51:59;13.35;;;10.32;;
32214;SDS011;18708;53.124;23.190;2023-12-20T02:54:25;13.50;;;10.57;;
32214;SDS011;18708;53.124;23.190;2023-12-20T02:56:50;13.00;;;10.50;;
32214;SDS011;18708;53.124;23.190;2023-12-20T02:59:16;11.98;;;9.52;;
32214;SDS011;18708;53.124;23.190;2023-12-20T03:01:43;12.27;;;10.20;;
32214;SDS011;18708;53.124;23.190;2023-12-20T03:04:10;14.75;;;10.32;;
32214;SDS011;18708;53.124;23.190;2023-12-20T03:06:37;12.63;;;9.90;;
32214;SDS011;18708;53.124;23.190;2023-12-20T03:09:03;13.45;;;10.35;;
32214;SDS011;18708;53.124;23.190;2023-12-20T03:11:29;15.48;;;10.88;;
32214;SDS011;18708;53.124;23.190;2023-12-20T03:13:57;12.35;;;9.30;;
32214;SDS011;18708;53.124;23.190;2023-12-20T03:16:23;12.70;;;9.35;;
32214;SDS011;18708;53.124;23.190;2023-12-20T03:18:49;12.25;;;10.02;;
32214;SDS011;18708;53.124;23.190;2023-12-20T03:21:14;11.65;;;9.05;;
32214;SDS011;18708;53.124;23.190;2023-12-20T03:23:40;13.50;;;10.65;;
32214;SDS011;18708;53.124;23.190;2023-12-20T03:26:09;12.52;;;9.57;;
32214;SDS011;18708;53.124;23.190;2023-12-20T03:28:38;14.18;;;9.20;;
32214;SDS011;18708;53.124;23.190;2023-12-20T03:31:05;12.30;;;9.60;;
32214;SDS011;18708;53.124;23.190;2023-12-20T03:33:31;10.48;;;9.23;;
32214;SDS011;18708;53.124;23.190;2023-12-20T03:35:56;13.13;;;9.93;;
32214;SDS011;18708;53.124;23.190;2023-12-20T03:38:22;10.45;;;9.05;;
32214;SDS011;18708;53.124;23.190;2023-12-20T03:40:51;11.65;;;9.95;;
32214;SDS011;18708;53.124;23.190;2023-12-20T03:43:16;13.82;;;10.55;;
32214;SDS011;18708;53.124;23.190;2023-12-20T03:45:42;12.73;;;9.90;;
32214;SDS011;18708;53.124;23.190;2023-12-20T03:48:10;11.85;;;9.55;;
32214;SDS011;18708;53.124;23.190;2023-12-20T03:50:37;12.50;;;10.13;;
32214;SDS011;18708;53.124;23.190;2023-12-20T03:53:02;13.93;;;10.50;;
32214;SDS011;18708;53.124;23.190;2023-12-20T03:55:29;13.45;;;10.73;;
32214;SDS011;18708;53.124;23.190;2023-12-20T03:57:54;13.15;;;10.15;;
32214;SDS011;18708;53.124;23.190;2023-12-20T04:00:20;13.30;;;10.48;;
32214;SDS011;18708;53.124;23.190;2023-12-20T04:02:46;13.82;;;10.70;;
32214;SDS011;18708;53.124;23.190;2023-12-20T04:05:11;15.60;;;10.85;;
32214;SDS011;18708;53.124;23.190;2023-12-20T04:07:37;13.38;;;10.73;;
32214;SDS011;18708;53.124;23.190;2023-12-20T04:10:03;13.50;;;11.38;;
32214;SDS011;18708;53.124;23.190;2023-12-20T04:12:30;14.63;;;11.75;;
32214;SDS011;18708;53.124;23.190;2023-12-20T04:14:56;13.80;;;10.95;;
32214;SDS011;18708;53.124;23.190;2023-12-20T04:17:22;14.75;;;12.18;;
32214;SDS011;18708;53.124;23.190;2023-12-20T04:19:48;14.50;;;11.75;;
32214;SDS011;18708;53.124;23.190;2023-12-20T04:22:17;14.43;;;11.88;;
32214;SDS011;18708;53.124;23.190;2023-12-20T04:24:43;15.25;;;12.18;;
32214;SDS011;18708;53.124;23.190;2023-12-20T04:27:11;16.48;;;12.70;;
32214;SDS011;18708;53.124;23.190;2023-12-20T04:29:37;15.20;;;12.65;;
32214;SDS011;18708;53.124;23.190;2023-12-20T04:32:03;15.52;;;12.02;;
32214;SDS011;18708;53.124;23.190;2023-12-20T04:34:29;16.10;;;12.80;;
32214;SDS011;18708;53.124;23.190;2023-12-20T04:36:55;17.38;;;12.20;;
32214;SDS011;18708;53.124;23.190;2023-12-20T04:39:21;15.60;;;12.00;;
32214;SDS011;18708;53.124;23.190;2023-12-20T04:41:46;17.60;;;12.75;;
32214;SDS011;18708;53.124;23.190;2023-12-20T04:44:15;15.45;;;12.27;;
32214;SDS011;18708;53.124;23.190;2023-12-20T04:46:40;15.85;;;12.02;;
32214;SDS011;18708;53.124;23.190;2023-12-20T04:49:06;20.77;;;13.57;;
32214;SDS011;18708;53.124;23.190;2023-12-20T04:51:33;19.77;;;13.57;;
32214;SDS011;18708;53.124;23.190;2023-12-20T04:53:59;18.10;;;12.98;;
32214;SDS011;18708;53.124;23.190;2023-12-20T04:56:27;16.52;;;12.23;;
32214;SDS011;18708;53.124;23.190;2023-12-20T04:58:55;17.35;;;13.27;;
32214;SDS011;18708;53.124;23.190;2023-12-20T05:01:21;17.42;;;13.82;;
32214;SDS011;18708;53.124;23.190;2023-12-20T05:03:46;16.50;;;13.02;;
32214;SDS011;18708;53.124;23.190;2023-12-20T05:06:12;16.75;;;13.13;;
32214;SDS011;18708;53.124;23.190;2023-12-20T05:08:38;19.60;;;12.82;;
32214;SDS011;18708;53.124;23.190;2023-12-20T05:11:03;17.30;;;12.68;;
32214;SDS011;18708;53.124;23.190;2023-12-20T05:13:29;15.43;;;12.60;;
32214;SDS011;18708;53.124;23.190;2023-12-20T05:15:55;14.13;;;11.23;;
32214;SDS011;18708;53.124;23.190;2023-12-20T05:18:23;14.85;;;13.00;;
32214;SDS011;18708;53.124;23.190;2023-12-20T05:20:49;14.80;;;11.48;;
32214;SDS011;18708;53.124;23.190;2023-12-20T05:23:16;15.38;;;12.35;;
32214;SDS011;18708;53.124;23.190;2023-12-20T05:25:42;17.48;;;13.52;;
32214;SDS011;18708;53.124;23.190;2023-12-20T05:28:08;17.20;;;13.00;;
32214;SDS011;18708;53.124;23.190;2023-12-20T05:30:33;17.10;;;12.07;;
32214;SDS011;18708;53.124;23.190;2023-12-20T05:32:59;13.60;;;11.23;;
32214;SDS011;18708;53.124;23.190;2023-12-20T05:35:25;14.77;;;11.45;;
32214;SDS011;18708;53.124;23.190;2023-12-20T05:37:51;14.73;;;11.05;;
32214;SDS011;18708;53.124;23.190;2023-12-20T05:40:16;17.52;;;11.82;;
32214;SDS011;18708;53.124;23.190;2023-12-20T05:42:42;15.27;;;11.20;;
32214;SDS011;18708;53.124;23.190;2023-12-20T05:45:08;15.65;;;11.45;;
32214;SDS011;18708;53.124;23.190;2023-12-20T05:47:34;14.45;;;11.40;;
32214;SDS011;18708;53.124;23.190;2023-12-20T05:50:02;15.13;;;11.75;;
32214;SDS011;18708;53.124;23.190;2023-12-20T05:52:29;17.35;;;13.43;;
32214;SDS011;18708;53.124;23.190;2023-12-20T05:54:54;15.95;;;12.45;;
32214;SDS011;18708;53.124;23.190;2023-12-20T05:57:22;16.30;;;12.60;;
32214;SDS011;18708;53.124;23.190;2023-12-20T05:59:48;16.92;;;12.63;;
32214;SDS011;18708;53.124;23.190;2023-12-20T06:02:14;14.13;;;11.20;;
32214;SDS011;18708;53.124;23.190;2023-12-20T06:04:42;15.63;;;11.73;;
32214;SDS011;18708;53.124;23.190;2023-12-20T06:07:11;15.52;;;11.95;;
32214;SDS011;18708;53.124;23.190;2023-12-20T06:09:39;15.32;;;11.63;;
32214;SDS011;18708;53.124;23.190;2023-12-20T06:12:07;15.00;;;11.32;;
32214;SDS011;18708;53.124;23.190;2023-12-20T06:14:36;20.52;;;15.35;;
32214;SDS011;18708;53.124;23.190;2023-12-20T06:17:01;24.77;;;17.65;;
32214;SDS011;18708;53.124;23.190;2023-12-20T06:19:27;37.40;;;27.05;;
32214;SDS011;18708;53.124;23.190;2023-12-20T06:21:53;40.28;;;29.38;;
32214;SDS011;18708;53.124;23.190;2023-12-20T06:24:21;50.38;;;35.13;;
32214;SDS011;18708;53.124;23.190;2023-12-20T06:26:47;27.23;;;19.40;;
32214;SDS011;18708;53.124;23.190;2023-12-20T06:29:15;28.80;;;19.98;;
32214;SDS011;18708;53.124;23.190;2023-12-20T06:31:40;103.43;;;76.63;;
32214;SDS011;18708;53.124;23.190;2023-12-20T06:34:06;64.93;;;54.08;;
32214;SDS011;18708;53.124;23.190;2023-12-20T06:36:32;42.40;;;35.53;;
32214;SDS011;18708;53.124;23.190;2023-12-20T06:38:58;34.95;;;31.05;;
32214;SDS011;18708;53.124;23.190;2023-12-20T06:41:23;27.48;;;23.80;;
32214;SDS011;18708;53.124;23.190;2023-12-20T06:43:49;38.65;;;31.77;;
32214;SDS011;18708;53.124;23.190;2023-12-20T06:46:16;52.45;;;46.85;;
32214;SDS011;18708;53.124;23.190;2023-12-20T06:48:42;52.13;;;45.95;;
32214;SDS011;18708;53.124;23.190;2023-12-20T06:51:14;65.10;;;57.58;;
32214;SDS011;18708;53.124;23.190;2023-12-20T06:53:41;69.00;;;60.03;;
32214;SDS011;18708;53.124;23.190;2023-12-20T06:56:07;34.97;;;30.15;;
32214;SDS011;18708;53.124;23.190;2023-12-20T06:58:33;42.20;;;35.03;;
32214;SDS011;18708;53.124;23.190;2023-12-20T07:01:00;44.88;;;38.50;;
32214;SDS011;18708;53.124;23.190;2023-12-20T07:03:25;43.28;;;35.25;;
32214;SDS011;18708;53.124;23.190;2023-12-20T07:05:51;33.42;;;26.98;;
32214;SDS011;18708;53.124;23.190;2023-12-20T07:08:17;52.17;;;40.45;;
32214;SDS011;18708;53.124;23.190;2023-12-20T07:10:42;42.90;;;31.20;;
32214;SDS011;18708;53.124;23.190;2023-12-20T07:13:09;32.45;;;22.90;;
32214;SDS011;18708;53.124;23.190;2023-12-20T07:15:34;30.23;;;20.27;;
32214;SDS011;18708;53.124;23.190;2023-12-20T07:18:01;31.27;;;21.95;;
32214;SDS011;18708;53.124;23.190;2023-12-20T07:20:27;24.13;;;16.50;;
32214;SDS011;18708;53.124;23.190;2023-12-20T07:22:53;26.35;;;20.33;;
32214;SDS011;18708;53.124;23.190;2023-12-20T07:25:18;26.25;;;19.35;;
32214;SDS011;18708;53.124;23.190;2023-12-20T07:27:45;21.83;;;16.38;;
32214;SDS011;18708;53.124;23.190;2023-12-20T07:30:10;22.77;;;16.83;;
32214;SDS011;18708;53.124;23.190;2023-12-20T07:32:36;28.05;;;18.50;;
32214;SDS011;18708;53.124;23.190;2023-12-20T07:35:05;24.15;;;18.23;;
32214;SDS011;18708;53.124;23.190;2023-12-20T07:37:31;24.17;;;16.42;;
32214;SDS011;18708;53.124;23.190;2023-12-20T07:39:59;23.25;;;16.05;;
32214;SDS011;18708;53.124;23.190;2023-12-20T07:42:24;24.17;;;15.73;;
32214;SDS011;18708;53.124;23.190;2023-12-20T07:44:50;21.52;;;15.55;;
32214;SDS011;18708;53.124;23.190;2023-12-20T07:47:16;31.40;;;21.85;;
32214;SDS011;18708;53.124;23.190;2023-12-20T07:49:46;24.50;;;18.10;;
32214;SDS011;18708;53.124;23.190;2023-12-20T07:52:16;21.30;;;16.02;;
32214;SDS011;18708;53.124;23.190;2023-12-20T07:54:42;24.00;;;18.00;;
32214;SDS011;18708;53.124;23.190;2023-12-20T07:57:08;25.73;;;18.00;;
32214;SDS011;18708;53.124;23.190;2023-12-20T07:59:33;21.40;;;16.35;;
32214;SDS011;18708;53.124;23.190;2023-12-20T08:01:59;23.08;;;15.40;;
32214;SDS011;18708;53.124;23.190;2023-12-20T08:04:25;23.17;;;16.00;;
32214;SDS011;18708;53.124;23.190;2023-12-20T08:06:50;20.40;;;14.50;;
32214;SDS011;18708;53.124;23.190;2023-12-20T08:09:16;22.58;;;15.77;;
32214;SDS011;18708;53.124;23.190;2023-12-20T08:11:45;25.42;;;18.35;;
32214;SDS011;18708;53.124;23.190;2023-12-20T08:14:11;25.23;;;17.52;;
32214;SDS011;18708;53.124;23.190;2023-12-20T08:16:37;50.42;;;31.60;;
32214;SDS011;18708;53.124;23.190;2023-12-20T08:19:02;61.00;;;41.63;;
32214;SDS011;18708;53.124;23.190;2023-12-20T08:21:28;44.08;;;32.60;;
32214;SDS011;18708;53.124;23.190;2023-12-20T08:23:54;36.70;;;26.80;;
32214;SDS011;18708;53.124;23.190;2023-12-20T08:26:20;36.72;;;24.75;;
32214;SDS011;18708;53.124;23.190;2023-12-20T08:28:48;27.38;;;19.00;;
32214;SDS011;18708;53.124;23.190;2023-12-20T08:31:17;27.02;;;21.75;;
32214;SDS011;18708;53.124;23.190;2023-12-20T08:33:43;23.73;;;18.20;;
32214;SDS011;18708;53.124;23.190;2023-12-20T08:36:09;25.98;;;19.02;;
32214;SDS011;18708;53.124;23.190;2023-12-20T08:38:35;25.40;;;19.65;;
32214;SDS011;18708;53.124;23.190;2023-12-20T08:41:01;32.08;;;25.67;;
32214;SDS011;18708;53.124;23.190;2023-12-20T08:43:28;26.38;;;18.38;;
32214;SDS011;18708;53.124;23.190;2023-12-20T08:45:54;25.08;;;17.60;;
32214;SDS011;18708;53.124;23.190;2023-12-20T08:48:19;37.22;;;28.17;;
32214;SDS011;18708;53.124;23.190;2023-12-20T08:50:45;26.35;;;17.75;;
32214;SDS011;18708;53.124;23.190;2023-12-20T08:53:13;21.25;;;14.95;;
32214;SDS011;18708;53.124;23.190;2023-12-20T08:55:40;24.92;;;19.67;;
32214;SDS011;18708;53.124;23.190;2023-12-20T08:58:08;21.10;;;15.70;;
32214;SDS011;18708;53.124;23.190;2023-12-20T09:00:34;29.60;;;19.35;;
32214;SDS011;18708;53.124;23.190;2023-12-20T09:03:03;68.45;;;39.17;;
32214;SDS011;18708;53.124;23.190;2023-12-20T09:05:29;100.35;;;51.05;;
32214;SDS011;18708;53.124;23.190;2023-12-20T09:07:55;54.75;;;30.35;;
32214;SDS011;18708;53.124;23.190;2023-12-20T09:10:20;82.55;;;40.38;;
32214;SDS011;18708;53.124;23.190;2023-12-20T09:12:50;168.88;;;80.57;;
32214;SDS011;18708;53.124;23.190;2023-12-20T09:15:21;151.80;;;68.85;;
32214;SDS011;18708;53.124;23.190;2023-12-20T09:17:50;170.75;;;78.90;;
32214;SDS011;18708;53.124;23.190;2023-12-20T09:20:16;280.50;;;119.80;;
32214;SDS011;18708;53.124;23.190;2023-12-20T09:22:42;177.15;;;74.40;;
32214;SDS011;18708;53.124;23.190;2023-12-20T09:25:09;258.00;;;115.82;;
32214;SDS011;18708;53.124;23.190;2023-12-20T09:27:38;244.50;;;114.18;;
32214;SDS011;18708;53.124;23.190;2023-12-20T09:30:04;155.65;;;65.30;;
32214;SDS011;18708;53.124;23.190;2023-12-20T09:32:31;197.70;;;84.35;;
32214;SDS011;18708;53.124;23.190;2023-12-20T09:34:57;145.90;;;69.10;;
32214;SDS011;18708;53.124;23.190;2023-12-20T09:37:23;249.70;;;110.18;;
32214;SDS011;18708;53.124;23.190;2023-12-20T09:39:51;262.20;;;103.30;;
32214;SDS011;18708;53.124;23.190;2023-12-20T09:42:17;197.98;;;78.72;;
32214;SDS011;18708;53.124;23.190;2023-12-20T09:44:53;164.82;;;75.75;;
32214;SDS011;18708;53.124;23.190;2023-12-20T09:47:20;182.60;;;80.20;;
32214;SDS011;18708;53.124;23.190;2023-12-20T09:49:50;202.45;;;77.57;;
32214;SDS011;18708;53.124;23.190;2023-12-20T09:52:17;194.20;;;73.40;;
32214;SDS011;18708;53.124;23.190;2023-12-20T09:54:44;154.25;;;59.70;;
32214;SDS011;18708;53.124;23.190;2023-12-20T09:57:12;238.90;;;102.35;;
32214;SDS011;18708;53.124;23.190;2023-12-20T09:59:37;130.00;;;50.00;;
32214;SDS011;18708;53.124;23.190;2023-12-20T10:02:04;100.55;;;39.25;;
32214;SDS011;18708;53.124;23.190;2023-12-20T10:04:37;187.95;;;86.47;;
32214;SDS011;18708;53.124;23.190;2023-12-20T10:07:06;158.02;;;61.75;;
32214;SDS011;18708;53.124;23.190;2023-12-20T10:09:32;381.42;;;122.97;;
32214;SDS011;18708;53.124;23.190;2023-12-20T10:12:02;199.25;;;68.43;;
32214;SDS011;18708;53.124;23.190;2023-12-20T10:14:28;158.63;;;62.80;;
32214;SDS011;18708;53.124;23.190;2023-12-20T10:16:53;320.25;;;118.20;;
32214;SDS011;18708;53.124;23.190;2023-12-20T10:19:26;64.63;;;27.88;;
32214;SDS011;18708;53.124;23.190;2023-12-20T10:21:52;72.88;;;30.48;;
32214;SDS011;18708;53.124;23.190;2023-12-20T10:24:20;190.93;;;86.75;;
32214;SDS011;18708;53.124;23.190;2023-12-20T10:26:45;121.25;;;63.17;;
32214;SDS011;18708;53.124;23.190;2023-12-20T10:29:11;81.82;;;36.25;;
32214;SDS011;18708;53.124;23.190;2023-12-20T10:31:37;12.20;;;8.90;;
32214;SDS011;18708;53.124;23.190;2023-12-20T10:34:07;8.77;;;4.13;;
32214;SDS011;18708;53.124;23.190;2023-12-20T10:36:33;7.07;;;3.70;;
32214;SDS011;18708;53.124;23.190;2023-12-20T10:39:01;7.07;;;4.32;;
32214;SDS011;18708;53.124;23.190;2023-12-20T10:41:29;4.95;;;4.05;;
32214;SDS011;18708;53.124;23.190;2023-12-20T10:43:59;9.77;;;7.97;;
32214;SDS011;18708;53.124;23.190;2023-12-20T10:46:32;7.50;;;4.70;;
32214;SDS011;18708;53.124;23.190;2023-12-20T10:48:58;6.93;;;4.43;;
32214;SDS011;18708;53.124;23.190;2023-12-20T10:51:26;26.33;;;16.10;;
32214;SDS011;18708;53.124;23.190;2023-12-20T10:53:54;7.47;;;4.30;;
32214;SDS011;18708;53.124;23.190;2023-12-20T10:56:21;10.55;;;7.38;;
32214;SDS011;18708;53.124;23.190;2023-12-20T10:58:48;4.13;;;3.72;;
32214;SDS011;18708;53.124;23.190;2023-12-20T11:01:15;13.02;;;9.60;;
32214;SDS011;18708;53.124;23.190;2023-12-20T11:03:44;13.32;;;9.70;;
32214;SDS011;18708;53.124;23.190;2023-12-20T11:06:25;27.30;;;18.23;;
32214;SDS011;18708;53.124;23.190;2023-12-20T11:14:25;10.30;;;6.03;;
32214;SDS011;18708;53.124;23.190;2023-12-20T11:17:07;11.73;;;7.03;;
32214;SDS011;18708;53.124;23.190;2023-12-20T11:22:27;36.88;;;31.38;;
32214;SDS011;18708;53.124;23.190;2023-12-20T11:27:40;12.82;;;9.88;;
32214;SDS011;18708;53.124;23.190;2023-12-20T11:30:07;16.33;;;12.10;;
32214;SDS011;18708;53.124;23.190;2023-12-20T11:32:37;19.30;;;13.38;;
32214;SDS011;18708;53.124;23.190;2023-12-20T11:37:36;25.77;;;18.73;;
32214;SDS011;18708;53.124;23.190;2023-12-20T11:40:06;12.63;;;9.60;;
32214;SDS011;18708;53.124;23.190;2023-12-20T11:42:37;12.48;;;9.82;;
32214;SDS011;18708;53.124;23.190;2023-12-20T11:45:04;13.63;;;9.70;;
32214;SDS011;18708;53.124;23.190;2023-12-20T11:47:33;17.88;;;12.23;;
32214;SDS011;18708;53.124;23.190;2023-12-20T11:50:00;32.22;;;20.65;;
32214;SDS011;18708;53.124;23.190;2023-12-20T11:52:29;8.25;;;4.63;;
32214;SDS011;18708;53.124;23.190;2023-12-20T11:54:55;11.38;;;4.55;;
32214;SDS011;18708;53.124;23.190;2023-12-20T11:57:22;22.00;;;12.93;;
32214;SDS011;18708;53.124;23.190;2023-12-20T11:59:47;15.25;;;9.27;;
32214;SDS011;18708;53.124;23.190;2023-12-20T12:02:13;11.80;;;8.68;;
32214;SDS011;18708;53.124;23.190;2023-12-20T12:04:43;11.77;;;5.43;;
32214;SDS011;18708;53.124;23.190;2023-12-20T12:07:08;12.60;;;3.88;;
32214;SDS011;18708;53.124;23.190;2023-12-20T12:09:34;10.27;;;3.97;;
32214;SDS011;18708;53.124;23.190;2023-12-20T12:12:00;10.30;;;3.80;;
32214;SDS011;18708;53.124;23.190;2023-12-20T12:14:26;17.08;;;4.60;;
32214;SDS011;18708;53.124;23.190;2023-12-20T12:16:52;7.97;;;3.72;;
32214;SDS011;18708;53.124;23.190;2023-12-20T12:19:24;6.97;;;4.25;;
32214;SDS011;18708;53.124;23.190;2023-12-20T12:21:52;6.13;;;4.50;;
32214;SDS011;18708;53.124;23.190;2023-12-20T12:24:34;13.50;;;8.00;;
32214;SDS011;18708;53.124;23.190;2023-12-20T12:26:59;9.05;;;4.45;;
32214;SDS011;18708;53.124;23.190;2023-12-20T12:29:25;17.60;;;10.18;;
32214;SDS011;18708;53.124;23.190;2023-12-20T12:31:51;91.72;;;14.40;;
32214;SDS011;18708;53.124;23.190;2023-12-20T12:34:17;32.50;;;11.90;;
32214;SDS011;18708;53.124;23.190;2023-12-20T12:36:43;16.80;;;7.88;;
32214;SDS011;18708;53.124;23.190;2023-12-20T12:39:12;11.90;;;5.15;;
32214;SDS011;18708;53.124;23.190;2023-12-20T12:41:40;9.20;;;7.07;;
32214;SDS011;18708;53.124;23.190;2023-12-20T12:44:06;12.32;;;6.55;;
32214;SDS011;18708;53.124;23.190;2023-12-20T12:46:32;23.88;;;7.75;;
32214;SDS011;18708;53.124;23.190;2023-12-20T12:48:58;17.95;;;6.47;;
32214;SDS011;18708;53.124;23.190;2023-12-20T12:51:23;30.33;;;9.35;;
32214;SDS011;18708;53.124;23.190;2023-12-20T12:53:49;29.20;;;17.30;;
32214;SDS011;18708;53.124;23.190;2023-12-20T12:56:15;27.75;;;18.83;;
32214;SDS011;18708;53.124;23.190;2023-12-20T12:58:41;22.58;;;11.73;;
32214;SDS011;18708;53.124;23.190;2023-12-20T13:01:07;130.65;;;66.32;;
32214;SDS011;18708;53.124;23.190;2023-12-20T13:03:35;81.93;;;38.17;;
32214;SDS011;18708;53.124;23.190;2023-12-20T13:06:01;20.55;;;9.68;;
32214;SDS011;18708;53.124;23.190;2023-12-20T13:08:27;32.28;;;16.58;;
32214;SDS011;18708;53.124;23.190;2023-12-20T13:10:54;27.33;;;18.42;;
32214;SDS011;18708;53.124;23.190;2023-12-20T13:13:20;21.40;;;11.50;;
32214;SDS011;18708;53.124;23.190;2023-12-20T13:15:46;14.85;;;9.45;;
32214;SDS011;18708;53.124;23.190;2023-12-20T13:18:16;19.90;;;12.00;;
32214;SDS011;18708;53.124;23.190;2023-12-20T13:20:43;18.98;;;11.18;;
32214;SDS011;18708;53.124;23.190;2023-12-20T13:23:11;20.83;;;12.23;;
32214;SDS011;18708;53.124;23.190;2023-12-20T13:25:37;18.58;;;11.38;;
32214;SDS011;18708;53.124;23.190;2023-12-20T13:28:05;20.75;;;12.15;;
32214;SDS011;18708;53.124;23.190;2023-12-20T13:30:31;24.25;;;11.27;;
32214;SDS011;18708;53.124;23.190;2023-12-20T13:32:57;16.73;;;10.63;;
32214;SDS011;18708;53.124;23.190;2023-12-20T13:35:22;15.50;;;9.70;;
32214;SDS011;18708;53.124;23.190;2023-12-20T13:37:48;19.25;;;12.10;;
32214;SDS011;18708;53.124;23.190;2023-12-20T13:40:14;15.88;;;9.95;;
32214;SDS011;18708;53.124;23.190;2023-12-20T13:42:40;15.75;;;10.13;;
32214;SDS011;18708;53.124;23.190;2023-12-20T13:45:05;24.70;;;12.45;;
32214;SDS011;18708;53.124;23.190;2023-12-20T13:47:32;24.67;;;15.77;;
32214;SDS011;18708;53.124;23.190;2023-12-20T13:50:00;28.42;;;14.63;;
32214;SDS011;18708;53.124;23.190;2023-12-20T13:52:26;15.65;;;9.82;;
32214;SDS011;18708;53.124;23.190;2023-12-20T13:54:51;15.25;;;10.05;;
32214;SDS011;18708;53.124;23.190;2023-12-20T13:57:19;16.40;;;9.73;;
32214;SDS011;18708;53.124;23.190;2023-12-20T13:59:45;16.52;;;11.73;;
32214;SDS011;18708;53.124;23.190;2023-12-20T14:02:11;22.95;;;14.23;;
32214;SDS011;18708;53.124;23.190;2023-12-20T14:04:36;26.17;;;17.13;;
32214;SDS011;18708;53.124;23.190;2023-12-20T14:07:04;21.98;;;14.40;;
32214;SDS011;18708;53.124;23.190;2023-12-20T14:09:30;27.20;;;16.65;;
32214;SDS011;18708;53.124;23.190;2023-12-20T14:11:55;23.13;;;15.57;;
32214;SDS011;18708;53.124;23.190;2023-12-20T14:14:23;28.98;;;15.60;;
32214;SDS011;18708;53.124;23.190;2023-12-20T14:16:49;23.27;;;15.27;;
32214;SDS011;18708;53.124;23.190;2023-12-20T14:19:15;21.60;;;14.90;;
32214;SDS011;18708;53.124;23.190;2023-12-20T14:21:41;25.42;;;17.27;;